Time;durP1;ratioP1;P1;durP2;ratioP2;P2;SDS_P1;SDS_P2;PMS_P1;PMS_P2;Temp;Humidity;BMP_temperature;BMP_pressure;BME280_temperature;BME280_humidity;BME280_pressure;Samples;Min_cycle;Max_cycle;Signal;HPM_P1;HPM_P2
2020/12/26 00:00:32;;;;;;;92.97;42.90;;;;;;;3.98;100.00;96644.00;5003172;28;20492;-65
2020/12/26 00:02:58;;;;;;;86.22;37.33;;;;;;;3.43;100.00;96558.69;5004848;28;20421;-65
2020/12/26 00:05:23;;;;;;;79.45;35.63;;;;;;;3.97;100.00;96641.63;5004324;28;20042;-64
2020/12/26 00:07:49;;;;;;;81.43;39.97;;;;;;;4.06;100.00;96661.53;5003989;28;20168;-64
2020/12/26 00:10:14;;;;;;;88.32;40.63;;;;;;;3.39;100.00;96571.47;5004528;28;20038;-64
2020/12/26 00:12:40;;;;;;;68.10;34.05;;;;;;;3.80;100.00;96634.38;5003061;28;20025;-62
2020/12/26 00:15:05;;;;;;;65.95;34.15;;;;;;;3.65;100.00;96607.59;5004721;28;20041;-63
2020/12/26 00:17:30;;;;;;;70.40;36.15;;;;;;;3.08;100.00;96499.97;5003038;28;20500;-63
2020/12/26 00:19:56;;;;;;;90.88;43.30;;;;;;;3.81;100.00;96600.38;5002755;28;20501;-65
2020/12/26 00:22:21;;;;;;;100.35;45.75;;;;;;;4.07;100.00;96658.44;5004771;28;20033;-63
2020/12/26 00:24:47;;;;;;;111.57;50.40;;;;;;;3.47;100.00;96677.34;5002883;28;20069;-65
2020/12/26 00:27:12;;;;;;;92.07;44.13;;;;;;;3.51;100.00;96655.59;5004209;28;20034;-64
2020/12/26 00:29:38;;;;;;;91.88;41.67;;;;;;;3.74;100.00;96676.81;5004353;28;20060;-64
2020/12/26 00:32:03;;;;;;;86.13;40.38;;;;;;;3.09;100.00;96567.22;5004166;28;20438;-65
2020/12/26 00:34:29;;;;;;;72.43;34.70;;;;;;;3.45;100.00;96641.28;5003874;28;20137;-64
2020/12/26 00:36:54;;;;;;;60.70;30.45;;;;;;;3.83;100.00;96674.78;5006284;28;20034;-65
2020/12/26 00:39:20;;;;;;;75.10;35.92;;;;;;;3.57;100.00;96638.63;5006589;28;20048;-65
2020/12/26 00:41:47;;;;;;;64.72;32.03;;;;;;;3.45;100.00;96608.44;5007631;28;20033;-65
2020/12/26 00:44:13;;;;;;;72.20;39.88;;;;;;;3.90;100.00;96661.38;5006316;28;20497;-65
2020/12/26 00:46:38;;;;;;;68.40;34.95;;;;;;;3.25;100.00;96554.53;5007499;28;20042;-64
2020/12/26 00:49:04;;;;;;;67.30;37.03;;;;;;;3.33;100.00;96572.00;5007860;28;20386;-65
2020/12/26 00:51:29;;;;;;;71.28;33.05;;;;;;;3.90;100.00;96664.09;5006273;28;20040;-65
2020/12/26 00:53:55;;;;;;;59.42;30.50;;;;;;;2.19;100.00;96395.84;5007426;28;20129;-65
2020/12/26 00:56:20;;;;;;;62.55;31.38;;;;;;;3.93;100.00;96657.13;5006364;28;20041;-65
2020/12/26 00:58:45;;;;;;;49.85;26.85;;;;;;;3.99;100.00;96648.38;5007770;28;20464;-66
2020/12/26 01:01:16;;;;;;;54.70;27.77;;;;;;;3.33;100.00;96585.69;5006106;28;20437;-65
2020/12/26 01:03:41;;;;;;;53.20;29.20;;;;;;;3.39;100.00;96544.09;5007802;28;20108;-65
2020/12/26 01:06:14;;;;;;;66.10;33.13;;;;;;;3.98;100.00;96638.53;5006310;28;20067;-66
2020/12/26 01:08:41;;;;;;;114.03;47.22;;;;;;;2.68;100.00;96452.38;5006557;28;20061;-64
2020/12/26 01:11:07;;;;;;;70.43;33.63;;;;;;;3.91;100.00;96613.66;5005925;28;20335;-64
2020/12/26 01:13:32;;;;;;;76.22;38.90;;;;;;;3.32;100.00;96510.97;5007736;28;20152;-65
2020/12/26 01:15:57;;;;;;;85.03;40.97;;;;;;;4.07;100.00;96647.50;5005776;28;20124;-65
2020/12/26 01:18:23;;;;;;;78.45;38.97;;;;;;;3.86;100.00;96618.53;5007418;28;20030;-64
2020/12/26 01:20:48;;;;;;;77.82;39.08;;;;;;;3.93;100.00;96646.19;5005674;28;20038;-64
2020/12/26 01:23:14;;;;;;;69.82;34.78;;;;;;;4.00;100.00;96646.44;5007345;28;20030;-64
2020/12/26 01:25:39;;;;;;;77.43;34.78;;;;;;;3.58;100.00;96585.47;5006876;28;20048;-64
2020/12/26 01:28:05;;;;;;;68.47;34.15;;;;;;;4.02;100.00;96650.44;5005642;28;20623;-63
2020/12/26 01:30:30;;;;;;;68.88;34.75;;;;;;;3.94;100.00;96632.16;5006932;28;20045;-63
2020/12/26 01:32:55;;;;;;;63.13;32.58;;;;;;;3.06;99.94;96513.16;5005565;28;20030;-65
2020/12/26 01:35:21;;;;;;;66.95;32.95;;;;;;;3.95;98.79;96643.91;5005355;28;20428;-64
2020/12/26 01:37:46;;;;;;;61.70;32.67;;;;;;;3.11;99.43;96575.91;5005431;28;20406;-63
2020/12/26 01:40:12;;;;;;;69.90;35.90;;;;;;;2.28;100.00;96503.91;5006695;28;20045;-64
2020/12/26 01:42:38;;;;;;;65.28;34.58;;;;;;;3.00;100.00;96634.88;5005645;28;20041;-64
2020/12/26 01:45:05;;;;;;;63.00;33.17;;;;;;;3.01;100.00;96615.38;5004783;28;20037;-65
2020/12/26 01:47:30;;;;;;;74.35;36.30;;;;;;;2.65;100.00;96541.31;5006506;28;20045;-64
2020/12/26 01:49:56;;;;;;;66.88;33.20;;;;;;;2.77;100.00;96554.25;5006843;28;20040;-64
2020/12/26 01:52:23;;;;;;;62.03;33.35;;;;;;;2.85;100.00;96542.44;5005037;28;20508;-65
2020/12/26 01:54:48;;;;;;;63.85;31.83;;;;;;;3.25;100.00;96620.22;5006832;28;20150;-67
2020/12/26 01:57:14;;;;;;;65.75;32.90;;;;;;;3.13;100.00;96622.84;5006552;28;20546;-65
2020/12/26 01:59:40;;;;;;;62.75;33.42;;;;;;;3.24;100.00;96626.78;5006385;28;20052;-65
2020/12/26 02:02:08;;;;;;;61.10;33.30;;;;;;;2.87;100.00;96581.22;5006393;28;20433;-65
2020/12/26 02:04:34;;;;;;;66.38;34.53;;;;;;;3.33;100.00;96630.28;5006277;28;20037;-64
2020/12/26 02:07:04;;;;;;;68.78;37.53;;;;;;;3.38;100.00;96616.41;5006480;28;20033;-64
2020/12/26 02:09:30;;;;;;;82.13;44.88;;;;;;;3.46;100.00;96620.19;5006717;28;20587;-65
2020/12/26 02:11:55;;;;;;;83.72;42.95;;;;;;;3.61;100.00;96634.06;5006473;28;20026;-65
2020/12/26 02:14:21;;;;;;;81.78;41.67;;;;;;;3.21;100.00;96548.09;5004988;28;20706;-65
2020/12/26 02:16:47;;;;;;;81.07;40.33;;;;;;;3.68;100.00;96623.38;4993380;28;20037;-64
2020/12/26 02:19:14;;;;;;;82.13;40.88;;;;;;;3.33;100.00;96577.47;4986502;28;20031;-64
2020/12/26 02:21:40;;;;;;;81.93;42.67;;;;;;;3.77;100.00;96637.78;4986386;28;20038;-64
2020/12/26 02:24:06;;;;;;;71.13;34.22;;;;;;;3.80;100.00;96620.69;4984675;28;20112;-64
2020/12/26 02:26:32;;;;;;;69.53;32.00;;;;;;;2.92;100.00;96498.97;5000918;28;20112;-64
2020/12/26 02:28:57;;;;;;;66.35;30.88;;;;;;;2.46;100.00;96414.44;5001335;28;20066;-66
2020/12/26 02:31:23;;;;;;;57.40;29.70;;;;;;;3.97;99.96;96636.94;4986150;28;20449;-64
2020/12/26 02:33:48;;;;;;;44.47;25.30;;;;;;;3.66;100.00;96608.41;4984893;28;20489;-65
2020/12/26 02:36:14;;;;;;;62.40;30.50;;;;;;;3.83;100.00;96625.50;4984700;28;20034;-63
2020/12/26 02:38:40;;;;;;;67.57;34.90;;;;;;;3.84;99.00;96632.56;4984656;28;20316;-63
2020/12/26 02:41:06;;;;;;;67.13;32.88;;;;;;;3.50;99.36;96649.31;4986356;28;20556;-63
2020/12/26 02:43:31;;;;;;;69.10;35.10;;;;;;;2.09;100.00;96498.09;4984443;28;20121;-64
2020/12/26 02:45:56;;;;;;;64.43;33.80;;;;;;;3.27;100.00;96631.63;4986220;28;20042;-63
2020/12/26 02:48:22;;;;;;;64.63;33.33;;;;;;;2.52;100.00;96514.22;5001020;28;20038;-63
2020/12/26 02:50:49;;;;;;;61.42;33.17;;;;;;;3.29;100.00;96681.34;4986188;28;20042;-63
2020/12/26 02:53:15;;;;;;;67.03;33.80;;;;;;;3.21;100.00;96596.59;4985852;28;20050;-63
2020/12/26 02:55:40;;;;;;;59.92;33.30;;;;;;;2.68;100.00;96509.78;4985964;28;20038;-63
2020/12/26 02:58:06;;;;;;;54.85;30.10;;;;;;;3.52;100.00;96636.09;4985340;28;20058;-63
2020/12/26 03:00:32;;;;;;;58.95;32.05;;;;;;;3.65;100.00;96618.56;4985778;28;20469;-64
2020/12/26 03:02:58;;;;;;;55.10;30.13;;;;;;;3.65;100.00;96629.50;4986019;28;20088;-65
2020/12/26 03:05:23;;;;;;;55.38;30.42;;;;;;;3.33;100.00;96588.44;4986063;28;20044;-63
2020/12/26 03:07:49;;;;;;;54.38;28.65;;;;;;;3.63;100.00;96637.28;4986085;28;20038;-64
2020/12/26 03:10:14;;;;;;;65.82;31.95;;;;;;;1.98;100.00;96509.69;4984474;28;20045;-63
2020/12/26 03:12:40;;;;;;;78.88;36.17;;;;;;;2.94;100.00;96644.41;4997135;28;20037;-64
2020/12/26 03:15:05;;;;;;;67.93;33.80;;;;;;;2.25;100.00;96503.78;5005617;28;20041;-63
2020/12/26 03:17:31;;;;;;;62.80;32.70;;;;;;;3.11;100.00;96652.50;5004038;28;20037;-64
2020/12/26 03:20:00;;;;;;;73.90;35.67;;;;;;;3.09;100.00;96662.97;5003903;28;20040;-63
2020/12/26 03:22:26;;;;;;;84.15;39.42;;;;;;;3.05;100.00;96654.63;5005309;28;20030;-63
2020/12/26 03:24:53;;;;;;;71.40;36.33;;;;;;;3.14;100.00;96657.31;5003667;28;20479;-64
2020/12/26 03:27:18;;;;;;;77.55;36.95;;;;;;;3.18;100.00;96658.22;5003235;28;20053;-65
2020/12/26 03:29:44;;;;;;;70.07;35.97;;;;;;;3.08;100.00;96651.22;5004909;28;20042;-64
2020/12/26 03:32:09;;;;;;;68.55;36.35;;;;;;;3.16;100.00;96643.28;5004899;28;20049;-63
2020/12/26 03:34:35;;;;;;;66.35;36.45;;;;;;;3.31;100.00;96646.22;5003337;28;20034;-64
2020/12/26 03:37:00;;;;;;;86.28;45.70;;;;;;;3.13;100.00;96623.66;5004637;28;20036;-64
2020/12/26 03:39:26;;;;;;;84.97;42.47;;;;;;;2.89;100.00;96666.47;5003353;28;20061;-64
2020/12/26 03:41:51;;;;;;;81.97;37.60;;;;;;;3.32;100.00;96636.09;5002750;28;20503;-64
2020/12/26 03:44:17;;;;;;;67.57;35.67;;;;;;;3.42;100.00;96658.38;5004676;28;20052;-64
2020/12/26 03:46:42;;;;;;;72.35;37.92;;;;;;;3.51;100.00;96645.41;5004436;28;20408;-64
2020/12/26 03:49:08;;;;;;;78.60;37.17;;;;;;;2.77;100.00;96526.91;5003164;28;20556;-64
2020/12/26 03:51:33;;;;;;;76.47;37.92;;;;;;;3.58;100.00;96650.38;5005041;28;20105;-63
2020/12/26 03:53:59;;;;;;;72.93;35.30;;;;;;;3.50;100.00;96654.78;5003255;28;20836;-65
2020/12/26 03:56:25;;;;;;;70.30;34.10;;;;;;;3.61;100.00;96645.03;5004297;28;20034;-66
2020/12/26 03:58:50;;;;;;;66.25;34.70;;;;;;;3.56;100.00;96641.66;5004623;28;20040;-65
2020/12/26 04:01:16;;;;;;;72.82;36.88;;;;;;;2.88;99.60;96545.31;5004745;28;20429;-64
2020/12/26 04:03:41;;;;;;;69.00;34.92;;;;;;;3.25;98.71;96605.72;5003139;28;20042;-65
2020/12/26 04:06:06;;;;;;;72.35;36.15;;;;;;;3.48;99.33;96646.09;5002960;28;20501;-64
2020/12/26 04:08:32;;;;;;;62.42;32.05;;;;;;;3.49;98.77;96647.72;5005717;28;20041;-64
2020/12/26 04:10:57;;;;;;;60.25;31.13;;;;;;;2.85;99.21;96539.72;5006330;28;20104;-65
2020/12/26 04:13:23;;;;;;;57.35;32.22;;;;;;;3.60;100.00;96648.91;5002969;28;20037;-64
2020/12/26 04:15:49;;;;;;;63.38;32.47;;;;;;;3.59;99.78;96657.47;5007429;28;20524;-64
2020/12/26 04:18:14;;;;;;;59.95;32.05;;;;;;;3.47;99.70;96617.13;5009006;28;20034;-65
2020/12/26 04:20:40;;;;;;;64.22;36.08;;;;;;;3.64;99.63;96638.88;5006741;28;20517;-66
2020/12/26 04:23:05;;;;;;;71.38;39.22;;;;;;;3.67;99.77;96643.69;5008388;28;20037;-65
2020/12/26 04:25:31;;;;;;;64.80;36.30;;;;;;;3.70;99.42;96637.53;5008213;28;20092;-64
2020/12/26 04:27:57;;;;;;;63.53;34.55;;;;;;;3.33;98.69;96600.19;5006788;28;20034;-63
2020/12/26 04:30:23;;;;;;;57.20;32.95;;;;;;;3.31;98.51;96577.00;5008069;28;20026;-64
2020/12/26 04:32:48;;;;;;;68.25;35.97;;;;;;;3.79;97.94;96641.00;5006671;28;20476;-64
2020/12/26 04:35:14;;;;;;;76.82;39.60;;;;;;;2.83;98.85;96520.09;5006184;28;20073;-65
2020/12/26 04:37:39;;;;;;;64.18;31.95;;;;;;;3.75;98.56;96653.75;5007919;28;20033;-64
2020/12/26 04:40:05;;;;;;;61.63;31.23;;;;;;;3.23;98.01;96584.16;5007841;28;20030;-64
2020/12/26 04:42:31;;;;;;;66.50;34.17;;;;;;;3.45;98.00;96629.53;5007993;28;20053;-65
2020/12/26 04:44:57;;;;;;;66.20;36.05;;;;;;;3.72;98.23;96651.69;5006362;28;20041;-66
2020/12/26 04:47:31;;;;;;;63.50;31.77;;;;;;;3.64;99.06;96655.31;5005781;28;20037;-64
2020/12/26 04:50:00;;;;;;;78.22;40.03;;;;;;;3.50;99.14;96638.34;5006138;28;20452;-64
2020/12/26 04:52:29;;;;;;;61.67;32.65;;;;;;;3.74;98.29;96676.00;5007635;28;20089;-64
2020/12/26 04:54:55;;;;;;;61.85;33.63;;;;;;;3.74;99.58;96679.56;5006178;28;20057;-65
2020/12/26 04:57:22;;;;;;;90.35;46.15;;;;;;;3.74;99.72;96667.78;5007791;28;20894;-64
2020/12/26 04:59:48;;;;;;;99.05;50.78;;;;;;;3.30;99.58;96611.81;5007599;28;20038;-67
2020/12/26 05:02:14;;;;;;;95.10;51.28;;;;;;;3.75;99.94;96655.69;5005871;28;20038;-64
2020/12/26 05:04:43;;;;;;;126.38;66.93;;;;;;;3.71;100.00;96633.66;5007657;28;20517;-64
2020/12/26 05:07:10;;;;;;;112.30;60.85;;;;;;;3.70;100.00;96653.19;5007178;28;20116;-63
2020/12/26 05:09:36;;;;;;;117.35;61.78;;;;;;;3.80;99.93;96659.03;5007418;28;20030;-64
2020/12/26 05:12:02;;;;;;;118.25;66.43;;;;;;;3.82;99.90;96645.81;5005792;28;20413;-65
2020/12/26 05:14:29;;;;;;;105.80;57.08;;;;;;;3.85;99.55;96653.34;5007098;28;20166;-65
2020/12/26 05:16:56;;;;;;;135.07;64.50;;;;;;;3.77;99.18;96640.53;5005793;28;20092;-65
2020/12/26 05:19:22;;;;;;;156.68;76.97;;;;;;;3.87;100.00;96648.31;5007639;28;20042;-64
2020/12/26 05:21:52;;;;;;;106.80;54.33;;;;;;;3.93;100.00;96652.47;5007187;28;20042;-64
2020/12/26 05:24:18;;;;;;;75.70;38.95;;;;;;;3.93;100.00;96652.47;5007299;28;20049;-64
2020/12/26 05:26:47;;;;;;;75.93;37.20;;;;;;;3.98;99.84;96645.97;5005947;28;20030;-66
2020/12/26 05:29:13;;;;;;;73.90;35.08;;;;;;;3.99;100.00;96664.00;5005576;28;20500;-64
2020/12/26 05:31:45;;;;;;;97.97;47.90;;;;;;;3.80;100.00;96670.00;5007467;28;20096;-64
2020/12/26 05:34:11;;;;;;;89.22;44.75;;;;;;;3.59;100.00;96658.25;5007065;28;20501;-64
2020/12/26 05:36:36;;;;;;;86.70;43.92;;;;;;;3.36;99.47;96621.41;5006602;28;20040;-64
2020/12/26 05:39:03;;;;;;;81.65;43.92;;;;;;;3.68;99.49;96675.41;5006916;28;20038;-65
2020/12/26 05:41:29;;;;;;;78.60;41.38;;;;;;;3.49;97.95;96631.28;5006514;28;20042;-66
2020/12/26 05:43:56;;;;;;;85.13;45.22;;;;;;;3.25;99.66;96633.88;5006907;28;20025;-65
2020/12/26 05:46:22;;;;;;;83.93;47.10;;;;;;;3.73;99.78;96685.38;5004879;28;20033;-65
2020/12/26 05:48:47;;;;;;;113.63;57.53;;;;;;;3.65;99.52;96667.84;5005352;28;20092;-64
2020/12/26 05:51:25;;;;;;;121.50;58.70;;;;;;;3.79;99.52;96700.44;5007031;28;20509;-66
2020/12/26 05:53:55;;;;;;;123.00;61.88;;;;;;;3.66;99.49;96652.22;5004837;28;20068;-64
2020/12/26 05:56:21;;;;;;;122.68;65.03;;;;;;;3.79;100.00;96684.84;5004867;28;20041;-64
2020/12/26 05:58:47;;;;;;;111.30;58.47;;;;;;;3.85;100.00;96699.91;5004991;28;20721;-64
2020/12/26 06:01:20;;;;;;;115.35;60.75;;;;;;;3.84;100.00;96676.38;5004709;28;20280;-65
2020/12/26 06:03:45;;;;;;;130.68;65.30;;;;;;;3.85;100.00;96688.16;5004778;28;20038;-62
2020/12/26 06:06:13;;;;;;;126.45;68.03;;;;;;;2.67;100.00;96494.50;5004686;28;20382;-63
2020/12/26 06:08:39;;;;;;;190.48;95.13;;;;;;;3.92;100.00;96675.50;5004529;28;20077;-62
2020/12/26 06:11:06;;;;;;;159.65;80.03;;;;;;;3.97;100.00;96675.31;5006517;28;20065;-61
2020/12/26 06:13:36;;;;;;;121.90;62.55;;;;;;;3.96;100.00;96678.38;5006087;28;20034;-63
2020/12/26 06:16:15;;;;;;;137.00;67.03;;;;;;;4.07;100.00;96679.56;5005985;28;20045;-62
2020/12/26 06:18:45;;;;;;;140.93;67.85;;;;;;;4.05;100.00;96682.63;5004474;28;20029;-63
2020/12/26 06:21:10;;;;;;;126.88;65.45;;;;;;;4.14;100.00;96680.59;5006179;28;20131;-62
2020/12/26 06:23:39;;;;;;;110.30;57.28;;;;;;;4.02;99.85;96677.84;5006134;28;20481;-62
2020/12/26 06:26:06;;;;;;;105.57;55.05;;;;;;;3.10;100.00;96552.38;5006316;28;20050;-61
2020/12/26 06:28:34;;;;;;;99.03;49.83;;;;;;;4.12;99.47;96702.09;5006115;28;20061;-62
2020/12/26 06:31:07;;;;;;;97.28;54.30;;;;;;;4.18;98.71;96703.47;5004373;28;20049;-62
2020/12/26 06:33:41;;;;;;;105.45;56.72;;;;;;;4.04;97.89;96664.59;5003619;28;20033;-63
2020/12/26 06:36:08;;;;;;;122.53;61.58;;;;;;;4.21;96.36;96667.16;5004528;28;20050;-62
2020/12/26 06:38:34;;;;;;;112.50;59.72;;;;;;;4.01;95.56;96643.38;5020771;28;20519;-62
2020/12/26 06:41:01;;;;;;;108.25;55.63;;;;;;;4.34;96.39;96696.22;5006053;28;20122;-62
2020/12/26 06:43:39;;;;;;;95.75;48.03;;;;;;;4.42;95.49;96702.75;5005726;28;20313;-63
2020/12/26 06:46:08;;;;;;;82.47;42.75;;;;;;;2.19;96.79;96360.31;5003664;28;20069;-62
2020/12/26 06:48:34;;;;;;;92.15;47.15;;;;;;;4.45;97.67;96724.81;5004260;28;20096;-63
2020/12/26 06:51:28;;;;;;;81.90;40.78;;;;;;;4.50;97.03;96716.34;5005813;28;20437;-63
2020/12/26 06:53:55;;;;;;;66.25;35.70;;;;;;;4.03;96.98;96652.03;5005229;28;20064;-64
2020/12/26 06:56:33;;;;;;;69.20;36.65;;;;;;;4.45;97.09;96713.84;5003960;28;20045;-63
2020/12/26 06:59:09;;;;;;;76.82;43.28;;;;;;;4.55;97.89;96724.34;5005299;28;20030;-62
2020/12/26 07:01:37;;;;;;;77.32;45.40;;;;;;;4.39;97.77;96687.75;5005319;28;20497;-62
2020/12/26 07:04:12;;;;;;;88.20;49.38;;;;;;;4.77;97.24;96741.56;5005603;28;20111;-62
2020/12/26 07:06:39;;;;;;;131.55;65.47;;;;;;;4.85;97.54;96732.44;5004906;28;20578;-63
2020/12/26 07:09:05;;;;;;;123.30;59.10;;;;;;;4.42;97.52;96659.69;5005167;28;20038;-64
2020/12/26 07:11:31;;;;;;;120.18;61.05;;;;;;;5.08;97.34;96736.31;5003343;28;20034;-63
2020/12/26 07:13:57;;;;;;;120.00;60.33;;;;;;;4.15;97.25;96605.50;5003940;28;20081;-63
2020/12/26 07:16:45;;;;;;;119.95;58.88;;;;;;;4.71;97.12;96664.16;5003563;28;20805;-62
2020/12/26 07:19:23;;;;;;;124.53;61.38;;;;;;;5.34;97.29;96712.09;5003469;28;20080;-63
2020/12/26 07:21:59;;;;;;;76.72;40.67;;;;;;;4.94;97.26;96659.84;5004944;28;20041;-62
2020/12/26 07:24:36;;;;;;;50.60;28.48;;;;;;;4.76;99.23;96672.16;5003548;28;20053;-63
2020/12/26 07:27:19;;;;;;;46.75;27.33;;;;;;;5.42;98.42;96719.41;5004469;28;20410;-64
2020/12/26 07:29:55;;;;;;;43.22;26.45;;;;;;;5.44;98.16;96714.34;5003812;28;20041;-63
2020/12/26 07:32:39;;;;;;;57.58;29.20;;;;;;;5.66;97.91;96724.84;5004923;28;20512;-63
2020/12/26 07:35:25;;;;;;;46.85;29.17;;;;;;;3.11;97.30;96291.38;5004510;28;20030;-62
2020/12/26 07:37:50;;;;;;;80.43;41.40;;;;;;;6.01;98.02;96717.69;4990348;28;20048;-63
2020/12/26 07:40:32;;;;;;;67.45;35.78;;;;;;;6.21;98.12;96722.22;5003255;28;20033;-63
2020/12/26 07:43:01;;;;;;;77.03;40.33;;;;;;;5.76;97.68;96641.94;5003275;28;20533;-63
2020/12/26 07:45:29;;;;;;;90.80;57.78;;;;;;;6.52;97.15;96725.03;5002828;28;20111;-62
2020/12/26 07:47:57;;;;;;;162.48;96.80;;;;;;;5.96;94.49;96682.19;5003239;28;20033;-67
2020/12/26 07:50:28;;;;;;;169.60;97.00;;;;;;;5.96;93.57;96624.47;5003040;28;20042;-65
2020/12/26 07:52:59;;;;;;;109.70;66.22;;;;;;;6.74;91.38;96724.44;5004520;28;20521;-64
2020/12/26 07:55:26;;;;;;;119.97;69.28;;;;;;;6.03;90.92;96635.66;5004231;28;20421;-64
2020/12/26 07:58:05;;;;;;;134.48;76.30;;;;;;;6.57;91.15;96721.22;5004645;28;20530;-63
2020/12/26 08:00:33;;;;;;;99.25;58.25;;;;;;;6.50;91.36;96693.50;5004049;28;20049;-64
2020/12/26 08:03:01;;;;;;;76.70;43.97;;;;;;;6.50;91.51;96719.06;5002959;28;20026;-64
2020/12/26 08:05:30;;;;;;;94.40;45.30;;;;;;;6.72;91.58;96726.75;5002762;28;20037;-63
2020/12/26 08:07:56;;;;;;;96.40;54.25;;;;;;;6.37;91.35;96662.50;5004532;28;20033;-63
2020/12/26 08:10:23;;;;;;;98.93;62.03;;;;;;;6.79;92.68;96781.19;5004274;28;20425;-64
2020/12/26 08:12:49;;;;;;;92.13;54.92;;;;;;;7.06;91.66;96730.78;5004466;28;20068;-64
2020/12/26 08:15:19;;;;;;;87.45;52.58;;;;;;;7.23;91.35;96722.97;5002851;28;20038;-64
2020/12/26 08:17:46;;;;;;;102.07;62.35;;;;;;;6.50;90.50;96587.00;5004616;28;20026;-62
2020/12/26 08:20:13;;;;;;;98.28;61.03;;;;;;;7.61;90.52;96731.34;5002827;28;20045;-62
2020/12/26 08:22:42;;;;;;;92.05;55.95;;;;;;;7.40;89.30;96703.28;5003049;28;20025;-63
2020/12/26 08:25:09;;;;;;;95.05;58.85;;;;;;;7.98;87.76;96737.31;5004560;28;20113;-64
2020/12/26 08:27:37;;;;;;;110.07;65.35;;;;;;;7.83;87.21;96729.06;5004503;28;20041;-63
2020/12/26 08:30:06;;;;;;;116.22;70.95;;;;;;;6.93;94.62;96730.06;5004622;28;20103;-63
2020/12/26 08:32:51;;;;;;;75.82;46.33;;;;;;;6.42;99.26;96722.78;5004157;28;20037;-65
2020/12/26 08:35:18;;;;;;;63.67;37.85;;;;;;;5.22;100.00;96572.06;5002742;28;20547;-64
2020/12/26 08:37:46;;;;;;;54.67;33.88;;;;;;;5.25;100.00;96571.38;5002637;28;20489;-63
2020/12/26 08:40:15;;;;;;;50.38;31.55;;;;;;;6.39;100.00;96736.44;5002513;28;20421;-63
2020/12/26 08:42:41;;;;;;;51.33;30.00;;;;;;;5.71;100.00;96678.69;5004258;28;20670;-63
2020/12/26 08:45:25;;;;;;;40.88;26.42;;;;;;;5.80;100.00;96653.84;5003953;28;20058;-63
2020/12/26 08:47:50;;;;;;;;;;;;;;;6.51;100.00;96739.94;4986422;28;20050;-64
2020/12/26 08:50:16;;;;;;;44.97;25.90;;;;;;;5.83;100.00;96614.69;5004105;28;19932;-64
2020/12/26 08:52:43;;;;;;;43.30;24.98;;;;;;;6.66;100.00;96733.66;5003980;28;20034;-64
2020/12/26 08:55:09;;;;;;;40.53;24.33;;;;;;;6.80;99.79;96731.28;5002862;28;20108;-64
2020/12/26 08:57:38;;;;;;;42.00;23.30;;;;;;;6.73;97.26;96702.78;5006075;28;20484;-64
2020/12/26 09:00:16;;;;;;;39.33;23.63;;;;;;;7.13;96.33;96739.19;5007538;28;20045;-64
2020/12/26 09:02:52;;;;;;;40.65;22.05;;;;;;;7.22;96.19;96732.34;5005921;28;20460;-64
2020/12/26 09:05:26;;;;;;;36.03;21.17;;;;;;;7.37;95.14;96723.28;5007478;28;20050;-65
2020/12/26 09:08:09;;;;;;;34.67;22.33;;;;;;;7.64;95.91;96705.00;5005671;28;20147;-65
2020/12/26 09:10:36;;;;;;;31.98;20.65;;;;;;;7.61;93.71;96662.44;5005727;28;20069;-65
2020/12/26 09:13:05;;;;;;;49.95;33.08;;;;;;;8.19;92.95;96720.41;5007128;28;20034;-65
2020/12/26 09:15:56;;;;;;;37.50;24.60;;;;;;;8.44;91.73;96721.75;5006975;28;20489;-65
2020/12/26 09:18:26;;;;;;;90.57;51.95;;;;;;;8.58;88.63;96699.94;5007347;28;20087;-65
2020/12/26 09:20:59;;;;;;;62.28;41.97;;;;;;;8.56;87.16;96707.78;5005468;28;20141;-64
2020/12/26 09:23:31;;;;;;;109.55;68.78;;;;;;;8.69;86.99;96706.44;5007418;28;20105;-66
2020/12/26 09:26:15;;;;;;;93.68;56.03;;;;;;;8.17;87.01;96595.84;5005455;28;20042;-63
2020/12/26 09:28:53;;;;;;;132.45;68.25;;;;;;;8.90;86.12;96715.09;5005891;28;20026;-65
2020/12/26 09:31:27;;;;;;;98.22;56.03;;;;;;;8.48;86.41;96637.84;5006004;28;20500;-65
2020/12/26 09:33:56;;;;;;;92.57;58.53;;;;;;;9.09;84.16;96692.94;5005512;28;20090;-64
2020/12/26 09:36:25;;;;;;;93.60;60.38;;;;;;;8.67;84.73;96603.84;5006712;28;20038;-65
2020/12/26 09:38:52;;;;;;;108.95;65.95;;;;;;;8.74;83.82;96598.47;5005404;28;20467;-65
2020/12/26 09:41:23;;;;;;;153.18;89.13;;;;;;;9.26;83.25;96686.13;5005149;28;20421;-65
2020/12/26 09:43:51;;;;;;;90.03;52.35;;;;;;;9.61;82.71;96720.66;5006596;28;20137;-64
2020/12/26 09:46:18;;;;;;;112.03;66.28;;;;;;;9.60;82.31;96688.66;5004926;28;20049;-64
2020/12/26 09:48:45;;;;;;;98.60;58.00;;;;;;;9.58;81.88;96682.69;5006971;28;20496;-64
2020/12/26 09:51:18;;;;;;;105.25;63.95;;;;;;;9.02;81.83;96577.63;5004760;28;20038;-64
2020/12/26 09:53:44;;;;;;;106.63;64.60;;;;;;;9.69;82.28;96691.94;5004652;28;20049;-64
2020/12/26 09:56:10;;;;;;;109.55;62.58;;;;;;;9.79;82.58;96694.06;5004879;28;20065;-65
2020/12/26 09:58:40;;;;;;;94.78;59.28;;;;;;;9.75;83.80;96687.69;5004888;28;20210;-64
2020/12/26 10:01:06;;;;;;;81.85;48.72;;;;;;;9.91;83.79;96680.00;5006451;28;20030;-66
2020/12/26 10:03:32;;;;;;;68.13;43.33;;;;;;;10.15;82.30;96674.03;5006539;28;20100;-65
2020/12/26 10:05:58;;;;;;;62.30;38.08;;;;;;;10.08;82.32;96673.16;5004157;28;20061;-68
2020/12/26 10:08:23;;;;;;;56.88;35.00;;;;;;;9.70;81.87;96596.75;5004434;28;20596;-65
2020/12/26 10:10:49;;;;;;;107.95;54.35;;;;;;;9.90;82.34;96631.38;5006274;28;20034;-65
2020/12/26 10:13:14;;;;;;;73.35;40.03;;;;;;;9.55;81.30;96556.25;5005909;28;20033;-65
2020/12/26 10:15:40;;;;;;;52.70;31.98;;;;;;;10.30;81.30;96681.34;5005821;28;20065;-67
2020/12/26 10:18:05;;;;;;;57.30;34.97;;;;;;;10.32;80.88;96690.03;5006178;28;20444;-65
2020/12/26 10:20:30;;;;;;;61.20;36.72;;;;;;;9.84;80.67;96643.16;5005904;28;20420;-65
2020/12/26 10:22:56;;;;;;;74.03;46.40;;;;;;;9.49;81.47;96606.72;5006281;28;20061;-66
2020/12/26 10:25:24;;;;;;;92.80;55.25;;;;;;;9.87;82.06;96645.16;5005515;28;20073;-66
2020/12/26 10:27:53;;;;;;;91.70;54.20;;;;;;;10.06;82.31;96679.03;5004563;28;20033;-67
2020/12/26 10:30:19;;;;;;;67.10;41.88;;;;;;;9.89;82.22;96696.19;5005820;28;20141;-66
2020/12/26 10:32:45;;;;;;;60.33;39.50;;;;;;;9.87;83.67;96673.63;5006321;28;20217;-66
2020/12/26 10:35:11;;;;;;;65.10;41.80;;;;;;;9.39;82.58;96563.94;5004030;28;20038;-66
2020/12/26 10:37:36;;;;;;;68.75;44.33;;;;;;;10.18;82.99;96667.72;5003932;28;20524;-65
2020/12/26 10:40:02;;;;;;;51.53;31.70;;;;;;;9.67;80.84;96569.84;5003973;28;20485;-65
2020/12/26 10:42:28;;;;;;;47.78;33.15;;;;;;;9.39;81.09;96503.13;5003963;28;20022;-65
2020/12/26 10:44:53;;;;;;;49.72;32.60;;;;;;;10.36;81.76;96684.56;5005788;28;20707;-65
2020/12/26 10:47:19;;;;;;;52.78;32.58;;;;;;;10.42;81.63;96680.28;5003877;28;20428;-66
2020/12/26 10:49:44;;;;;;;47.55;30.20;;;;;;;10.59;81.42;96683.25;5004109;28;20206;-66
2020/12/26 10:52:09;;;;;;;48.60;31.38;;;;;;;10.73;80.88;96672.31;5005020;28;20033;-68
2020/12/26 10:54:35;;;;;;;51.10;33.35;;;;;;;10.51;80.38;96626.19;5003489;28;20580;-66
2020/12/26 10:57:00;;;;;;;49.08;32.65;;;;;;;10.80;79.89;96676.31;5005397;28;20165;-67
2020/12/26 10:59:26;;;;;;;52.53;33.42;;;;;;;10.50;79.84;96635.69;5005365;28;20042;-66
2020/12/26 11:01:51;;;;;;;52.53;34.17;;;;;;;10.68;78.43;96639.41;5005355;28;20416;-66
2020/12/26 11:04:17;;;;;;;58.42;36.80;;;;;;;10.85;77.91;96684.31;5005853;28;20037;-66
2020/12/26 11:06:48;;;;;;;58.20;37.53;;;;;;;10.84;79.43;96666.09;5003692;28;20523;-67
2020/12/26 11:09:13;;;;;;;72.90;43.08;;;;;;;10.78;79.54;96662.84;5004106;28;20038;-66
2020/12/26 11:11:45;;;;;;;74.47;46.25;;;;;;;9.91;78.79;96524.28;5005312;28;20026;-66
2020/12/26 11:14:10;;;;;;;74.05;47.70;;;;;;;10.47;79.01;96630.91;5003745;28;20034;-65
2020/12/26 11:16:36;;;;;;;80.40;48.88;;;;;;;10.89;78.99;96674.06;5003380;28;20029;-67
2020/12/26 11:19:01;;;;;;;75.65;48.83;;;;;;;10.94;78.99;96665.41;5004648;28;20136;-66
2020/12/26 11:21:26;;;;;;;82.72;52.15;;;;;;;11.05;79.35;96666.31;5004840;28;20026;-66